TimeCST,TemperatureF,Dew PointF,Humidity,Sea Level PressureIn,VisibilityMPH,Wind Direction,Wind SpeedMPH,Gust SpeedMPH,PrecipitationIn,Events,Conditions,WindDirDegrees,DateUTC
12:47 AM,75.2,71.6,89,29.87,7.0,ENE,4.6,-,N/A,,Clear,70,2012-12-11 06:47:00
1:47 AM,73.4,71.6,94,29.86,7.0,East,4.6,-,N/A,,Clear,80,2012-12-11 07:47:00
2:48 AM,73.4,71.6,94,29.88,7.0,East,4.6,-,N/A,,Scattered Clouds,80,2012-12-11 08:48:00
2:50 AM,74,74,98,29.87,3,ENE,6.7,,,,Partly Cloudy,70,2012-12-11 08:50:00
3:44 AM,73.4,69.8,88,29.86,7.0,East,4.6,-,N/A,,Partly Cloudy,100,2012-12-11 09:44:00
4:47 AM,71.6,69.8,94,29.88,7.0,Calm,Calm,-,N/A,,Mostly Cloudy,0,2012-12-11 10:47:00
5:48 AM,71.6,69.8,94,29.88,7.0,Calm,Calm,-,N/A,,Scattered Clouds,0,2012-12-11 11:48:00
5:50 AM,72,71,95,29.91,3,Calm,Calm,,,,Scattered Clouds,,2012-12-11 11:50:00
6:32 AM,71.6,68.0,88,29.91,3.0,East,3.5,-,N/A,,Mostly Cloudy,90,2012-12-11 12:32:00
6:45 AM,71.6,69.8,94,29.91,4.0,East,3.5,-,N/A,,Scattered Clouds,100,2012-12-11 12:45:00
7:41 AM,73.4,71.6,94,29.93,4.0,East,5.8,-,N/A,,Partly Cloudy,100,2012-12-11 13:41:00
8:50 AM,82,74,71,29.96,6,South,2.2,,,,Scattered Clouds,180,2012-12-11 14:50:00
8:50 AM,78.8,71.6,78,29.93,5.0,South,6.9,-,N/A,,Scattered Clouds,170,2012-12-11 14:50:00
9:08 AM,80.6,71.6,74,29.95,5.0,SSE,6.9,-,N/A,,Mostly Cloudy,150,2012-12-11 15:08:00
9:50 AM,82.4,71.6,70,29.94,7.0,SSE,6.9,-,N/A,,Mostly Cloudy,160,2012-12-11 15:50:00
10:46 AM,84.2,69.8,62,29.93,7.0,South,9.2,-,N/A,,Mostly Cloudy,190,2012-12-11 16:46:00
11:48 AM,86.0,68.0,55,29.91,7.0,SSW,6.9,-,N/A,,Mostly Cloudy,200,2012-12-11 17:48:00
11:50 AM,90,72,47,29.92,6,SSE,4.5,,,,Partly Cloudy,160,2012-12-11 17:50:00
12:46 PM,89.6,68.0,49,29.87,7.0,SSW,3.5,-,N/A,,Mostly Cloudy,200,2012-12-11 18:46:00
1:53 PM,87.8,64.4,46,29.84,7.0,SSW,4.6,-,N/A,,Mostly Cloudy,200,2012-12-11 19:53:00
2:50 PM,93,66,32,29.83,6,NNW,2.2,,,,Partly Cloudy,340,2012-12-11 20:50:00
2:52 PM,91.4,60.8,36,29.83,7.0,WSW,4.6,-,N/A,,Mostly Cloudy,250,2012-12-11 20:52:00
3:50 PM,86.0,69.8,58,29.82,7.0,NW,13.8,-,N/A,,Mostly Cloudy,310,2012-12-11 21:50:00
4:45 PM,84.2,69.8,62,29.84,7.0,North,6.9,-,N/A,,Scattered Clouds,360,2012-12-11 22:45:00
5:50 PM,82,74,70,29.87,3,NNE,6.7,,,,Partly Cloudy,20,2012-12-11 23:50:00
5:52 PM,80.6,69.8,70,29.87,7.0,North,5.8,-,N/A,,Scattered Clouds,360,2012-12-11 23:52:00
6:48 PM,78.8,71.6,78,29.90,7.0,North,4.6,-,N/A,,Scattered Clouds,10,2012-12-12 00:48:00
7:47 PM,77.0,71.6,83,29.94,7.0,North,6.9,-,N/A,,Scattered Clouds,10,2012-12-12 01:47:00
8:44 PM,77.0,71.6,83,29.94,7.0,NE,4.6,-,N/A,,Mostly Cloudy,40,2012-12-12 02:44:00
8:50 PM,78,75,88,29.96,3,ENE,4.5,,,,Mostly Cloudy,70,2012-12-12 02:50:00
9:41 PM,77.0,71.6,83,29.97,7.0,Calm,Calm,-,N/A,,Clear,0,2012-12-12 03:41:00
10:47 PM,75.2,71.6,89,29.99,7.0,Calm,Calm,-,N/A,,Clear,0,2012-12-12 04:47:00
11:46 PM,73.4,71.6,94,29.99,7.0,Calm,Calm,-,N/A,,Clear,0,2012-12-12 05:46:00
11:50 PM,76,74,93,29.98,3,NW,2.2,,,,Partly Cloudy,320,2012-12-12 05:50:00